Time;durP1;ratioP1;P1;durP2;ratioP2;P2;SDS_P1;SDS_P2;PMS_P1;PMS_P2;Temp;Humidity;BMP_temperature;BMP_pressure;BME280_temperature;BME280_humidity;BME280_pressure;Samples;Min_cycle;Max_cycle;Signal;HPM_P1;HPM_P2
2023/09/08 00:01:53;;;;;;;2.60;2.00;;;16.80;99.90;;;;;;5002318;28;20479;-78
2023/09/08 00:04:21;;;;;;;1.17;1.17;;;16.70;99.90;;;;;;5003696;28;20841;-82
2023/09/08 00:06:48;;;;;;;1.00;1.00;;;16.60;99.90;;;;;;4995760;28;20529;-84
2023/09/08 00:09:16;;;;;;;1.57;1.47;;;16.60;99.90;;;;;;4992995;28;20485;-83
2023/09/08 00:11:43;;;;;;;1.67;1.57;;;16.70;99.90;;;;;;4984262;28;20638;-84
2023/09/08 00:14:12;;;;;;;2.17;2.07;;;16.80;99.90;;;;;;4984677;28;20444;-84
2023/09/08 00:16:46;;;;;;;1.20;1.20;;;16.60;99.90;;;;;;4985259;28;20942;-84
2023/09/08 00:19:16;;;;;;;1.87;1.77;;;16.60;99.90;;;;;;4959669;28;20510;-83
2023/09/08 00:21:43;;;;;;;2.10;2.00;;;16.40;99.90;;;;;;4996455;28;20848;-85
2023/09/08 00:24:12;;;;;;;0.90;0.90;;;16.30;99.90;;;;;;5002073;28;20451;-82
2023/09/08 00:26:39;;;;;;;1.47;1.37;;;16.40;99.90;;;;;;4981845;28;20465;-81
2023/09/08 00:29:08;;;;;;;1.00;1.00;;;16.30;99.90;;;;;;4988576;28;20474;-84
2023/09/08 00:31:35;;;;;;;2.17;2.07;;;16.20;99.90;;;;;;5008065;28;20458;-83
2023/09/08 00:34:05;;;;;;;2.73;2.00;;;16.20;99.90;;;;;;5004448;28;20436;-87
2023/09/08 00:36:34;;;;;;;1.77;1.67;;;16.20;99.90;;;;;;4997335;28;20436;-81
2023/09/08 00:39:01;;;;;;;1.97;1.90;;;16.20;99.90;;;;;;4993775;28;20550;-83
2023/09/08 00:41:30;;;;;;;3.33;3.13;;;16.20;99.90;;;;;;4983912;28;20512;-86
2023/09/08 00:43:56;;;;;;;2.77;2.60;;;16.20;99.90;;;;;;4992800;28;20688;-84
2023/09/08 00:46:27;;;;;;;1.10;1.10;;;16.10;99.90;;;;;;4992588;28;20679;-83
2023/09/08 00:48:55;;;;;;;3.10;2.80;;;16.20;99.90;;;;;;4976070;28;20699;-83
2023/09/08 00:51:22;;;;;;;2.27;2.17;;;16.20;99.90;;;;;;4999241;28;20793;-81
2023/09/08 00:53:53;;;;;;;2.50;2.40;;;16.20;99.90;;;;;;4969826;28;20495;-79
2023/09/08 00:56:20;;;;;;;1.50;1.50;;;16.30;99.90;;;;;;4992578;28;20489;-80
2023/09/08 00:58:48;;;;;;;1.87;1.77;;;16.10;99.90;;;;;;4970164;28;21036;-80
2023/09/08 01:01:17;;;;;;;3.43;1.60;;;16.00;99.90;;;;;;4979785;28;20441;-82
2023/09/08 01:03:45;;;;;;;1.13;1.13;;;15.90;99.90;;;;;;4999170;28;20539;-80
2023/09/08 01:06:13;;;;;;;3.27;2.97;;;16.00;99.90;;;;;;4998516;28;20791;-82
2023/09/08 01:08:43;;;;;;;2.03;1.93;;;16.00;99.90;;;;;;4998624;28;20556;-80
2023/09/08 01:11:11;;;;;;;1.50;1.50;;;15.80;99.90;;;;;;4995495;28;20936;-84
2023/09/08 01:13:46;;;;;;;0.90;0.90;;;15.90;99.90;;;;;;4994706;28;20440;-80
2023/09/08 01:16:14;;;;;;;1.60;1.50;;;15.90;99.90;;;;;;4991521;28;20446;-82
2023/09/08 01:18:50;;;;;;;2.60;2.50;;;15.90;99.90;;;;;;4970354;28;20779;-82
2023/09/08 01:21:56;;;;;;;2.33;1.83;;;15.90;99.90;;;;;;4985636;28;20786;-80
2023/09/08 01:24:41;;;;;;;2.87;2.70;;;15.70;99.90;;;;;;4991542;28;20444;-83
2023/09/08 01:27:12;;;;;;;1.20;1.20;;;15.80;99.90;;;;;;4976780;28;20444;-85
2023/09/08 01:29:41;;;;;;;1.27;1.27;;;15.70;99.90;;;;;;4992972;28;20556;-83
2023/09/08 01:32:10;;;;;;;2.73;2.50;;;15.70;99.90;;;;;;4976596;28;20524;-80
2023/09/08 01:34:40;;;;;;;3.20;3.10;;;15.70;99.90;;;;;;4975897;28;20520;-81
2023/09/08 01:37:08;;;;;;;1.60;1.27;;;15.60;99.90;;;;;;4994949;28;20790;-83
2023/09/08 01:39:35;;;;;;;3.43;3.13;;;15.50;99.90;;;;;;4988059;28;20478;-78
2023/09/08 01:42:02;;;;;;;1.47;1.37;;;15.40;99.90;;;;;;4979966;28;20509;-87
2023/09/08 01:44:30;;;;;;;1.40;1.30;;;15.50;99.90;;;;;;4988639;28;20693;-84
2023/09/08 01:46:59;;;;;;;1.27;1.27;;;15.40;99.90;;;;;;4994943;28;20745;-83
2023/09/08 01:49:29;;;;;;;1.40;1.40;;;15.30;99.90;;;;;;4988592;28;20481;-85
2023/09/08 01:51:57;;;;;;;3.33;3.03;;;15.20;99.90;;;;;;4999336;28;20454;-85
2023/09/08 01:54:24;;;;;;;1.43;1.33;;;15.20;99.90;;;;;;5010262;28;20435;-84
2023/09/08 01:56:51;;;;;;;1.00;1.00;;;15.20;99.90;;;;;;4982969;28;20782;-85
2023/09/08 01:59:22;;;;;;;1.87;1.77;;;15.10;99.90;;;;;;4994735;28;20456;-83
2023/09/08 02:01:50;;;;;;;2.13;2.03;;;15.30;99.90;;;;;;4996186;28;20846;-85
2023/09/08 02:04:18;;;;;;;3.27;3.07;;;15.40;99.90;;;;;;4971094;28;20476;-83
2023/09/08 02:06:47;;;;;;;1.27;1.17;;;15.20;99.90;;;;;;4973584;28;20458;-87
2023/09/08 02:09:15;;;;;;;2.40;2.30;;;15.20;99.90;;;;;;4981072;28;21118;-86
2023/09/08 02:11:42;;;;;;;3.43;3.27;;;15.10;99.90;;;;;;4960736;28;20451;-83
2023/09/08 02:14:09;;;;;;;1.37;1.27;;;15.10;99.90;;;;;;4996524;28;20443;-87
2023/09/08 02:16:36;;;;;;;5.90;1.63;;;15.10;99.90;;;;;;4998981;28;20461;-85
2023/09/08 02:19:05;;;;;;;2.10;2.00;;;15.00;99.90;;;;;;4966884;28;20513;-84
2023/09/08 02:21:31;;;;;;;1.63;1.53;;;15.00;99.90;;;;;;4993424;28;20504;-85
2023/09/08 02:23:59;;;;;;;1.87;1.77;;;15.00;99.90;;;;;;4982368;28;20456;-89
2023/09/08 02:26:29;;;;;;;1.53;1.43;;;14.90;99.90;;;;;;4989111;28;20509;-87
2023/09/08 02:28:57;;;;;;;1.63;1.53;;;14.90;99.90;;;;;;4975863;28;20525;-85
2023/09/08 02:31:28;;;;;;;2.27;2.10;;;14.80;99.90;;;;;;4999894;28;20788;-84
2023/09/08 02:33:56;;;;;;;1.90;1.70;;;14.90;99.90;;;;;;4997628;28;20512;-86
2023/09/08 02:36:26;;;;;;;0.90;0.90;;;15.00;99.90;;;;;;4995346;28;20452;-85
2023/09/08 02:38:53;;;;;;;1.43;1.33;;;14.90;99.90;;;;;;5011273;28;20450;-85
2023/09/08 02:41:23;;;;;;;1.00;1.00;;;14.90;99.90;;;;;;5018240;28;20434;-88
2023/09/08 02:43:51;;;;;;;2.03;1.93;;;14.80;99.90;;;;;;5011419;28;20518;-87
2023/09/08 02:46:19;;;;;;;1.73;1.63;;;14.70;99.90;;;;;;5011481;28;20684;-86
2023/09/08 02:48:47;;;;;;;3.17;3.07;;;14.70;99.90;;;;;;4990069;28;20666;-82
2023/09/08 02:51:15;;;;;;;1.27;1.17;;;14.60;99.90;;;;;;5001145;28;20446;-82
2023/09/08 02:53:43;;;;;;;1.33;1.33;;;14.70;99.90;;;;;;4999030;28;20462;-83
2023/09/08 02:56:13;;;;;;;1.00;1.00;;;14.50;99.90;;;;;;4993045;28;20462;-85
2023/09/08 02:58:44;;;;;;;2.37;2.27;;;14.50;99.90;;;;;;4981746;28;20447;-85
2023/09/08 03:01:19;;;;;;;2.10;1.90;;;14.40;99.90;;;;;;4975818;28;20491;-83
2023/09/08 03:03:49;;;;;;;2.40;2.07;;;14.40;99.90;;;;;;4998215;28;20507;-82
2023/09/08 03:06:20;;;;;;;1.83;1.73;;;14.60;99.90;;;;;;5001225;28;20659;-83
2023/09/08 03:08:48;;;;;;;1.80;1.70;;;14.50;99.90;;;;;;5001119;28;20452;-81
2023/09/08 03:11:15;;;;;;;3.23;3.03;;;14.60;99.90;;;;;;4993339;28;20494;-82
2023/09/08 03:13:47;;;;;;;2.20;2.00;;;14.50;99.90;;;;;;4994466;28;20690;-84
2023/09/08 03:16:16;;;;;;;2.30;2.20;;;14.40;99.90;;;;;;4991501;28;20619;-81
2023/09/08 03:18:51;;;;;;;2.40;2.00;;;14.40;99.90;;;;;;4995473;28;20462;-83
2023/09/08 03:21:21;;;;;;;4.30;2.90;;;14.50;99.90;;;;;;4990150;28;21077;-82
2023/09/08 03:23:49;;;;;;;2.97;2.77;;;14.40;99.90;;;;;;4996488;28;20540;-80
2023/09/08 03:26:16;;;;;;;2.23;2.13;;;14.50;99.90;;;;;;4996325;28;20438;-84
2023/09/08 03:28:44;;;;;;;2.37;2.27;;;14.30;99.90;;;;;;4998252;28;20517;-80
2023/09/08 03:31:12;;;;;;;1.80;1.70;;;14.30;99.90;;;;;;4986527;28;20984;-82
2023/09/08 03:33:42;;;;;;;1.20;1.13;;;14.30;99.90;;;;;;5005331;28;20671;-86
2023/09/08 03:36:12;;;;;;;2.70;2.60;;;14.10;99.90;;;;;;5000213;28;21076;-84
2023/09/08 03:38:40;;;;;;;3.13;2.93;;;14.10;99.90;;;;;;5011137;28;20437;-83
2023/09/08 03:41:11;;;;;;;2.27;2.17;;;14.10;99.90;;;;;;5018153;28;20442;-88
2023/09/08 03:43:39;;;;;;;4.00;3.60;;;14.10;99.90;;;;;;5014152;28;20457;-85
2023/09/08 03:46:19;;;;;;;1.93;1.83;;;14.10;99.90;;;;;;4976445;28;20462;-83
2023/09/08 03:48:48;;;;;;;3.37;3.23;;;14.00;99.90;;;;;;5000749;28;20786;-83
2023/09/08 03:51:21;;;;;;;1.60;1.50;;;14.20;99.90;;;;;;4977751;28;20456;-78
2023/09/08 03:53:49;;;;;;;2.37;2.17;;;14.20;99.90;;;;;;4999162;28;20526;-80
2023/09/08 03:56:26;;;;;;;1.50;1.47;;;14.20;99.90;;;;;;4979985;28;20591;-84
2023/09/08 03:58:55;;;;;;;1.00;1.00;;;14.10;99.90;;;;;;5003163;28;20437;-81
2023/09/08 04:01:22;;;;;;;2.40;2.20;;;14.20;99.90;;;;;;4997592;28;20467;-84
2023/09/08 04:03:49;;;;;;;2.10;2.00;;;14.20;99.90;;;;;;4991758;28;20449;-85
2023/09/08 04:06:16;;;;;;;2.03;1.93;;;14.20;99.90;;;;;;4985562;28;20458;-87
2023/09/08 04:08:44;;;;;;;5.50;2.97;;;14.00;99.90;;;;;;4997401;28;20480;-82
2023/09/08 04:11:12;;;;;;;0.90;0.90;;;14.00;99.90;;;;;;4989317;28;20470;-81
2023/09/08 04:13:42;;;;;;;2.47;2.37;;;14.10;99.90;;;;;;4990702;28;20505;-85
2023/09/08 04:16:10;;;;;;;1.20;1.20;;;14.30;99.90;;;;;;4990206;28;20501;-84
2023/09/08 04:18:37;;;;;;;4.53;4.23;;;14.20;99.90;;;;;;4996136;28;20437;-81
2023/09/08 04:21:07;;;;;;;2.90;2.70;;;14.10;99.90;;;;;;4998621;28;20454;-81
2023/09/08 04:23:34;;;;;;;3.63;3.43;;;14.20;99.90;;;;;;4997075;28;20454;-79
2023/09/08 04:26:02;;;;;;;0.80;0.80;;;14.10;99.90;;;;;;4981914;28;20825;-80
2023/09/08 04:28:29;;;;;;;1.00;1.00;;;14.10;99.90;;;;;;4981719;28;20453;-81
2023/09/08 04:31:05;;;;;;;1.17;1.07;;;14.10;99.90;;;;;;4978871;28;20532;-86
2023/09/08 04:33:34;;;;;;;1.87;1.77;;;14.20;99.90;;;;;;4992333;28;20441;-82
2023/09/08 04:36:02;;;;;;;1.83;1.73;;;14.20;99.90;;;;;;4997297;28;20678;-81
2023/09/08 04:38:28;;;;;;;1.43;1.43;;;14.20;99.90;;;;;;4995264;28;20501;-80
2023/09/08 04:40:55;;;;;;;1.70;1.60;;;14.40;99.90;;;;;;4994238;28;20449;-84
2023/09/08 04:43:25;;;;;;;3.27;3.10;;;14.30;99.90;;;;;;4991005;28;20596;-79
2023/09/08 04:45:53;;;;;;;1.20;1.20;;;14.30;99.90;;;;;;4981446;28;20808;-86
2023/09/08 04:48:23;;;;;;;1.53;1.47;;;14.30;99.90;;;;;;4998633;28;20897;-79
2023/09/08 04:50:58;;;;;;;1.57;1.47;;;14.40;99.90;;;;;;4998734;28;20501;-85
2023/09/08 04:53:26;;;;;;;2.67;2.57;;;14.30;99.90;;;;;;5001070;28;20966;-79
2023/09/08 04:55:54;;;;;;;2.17;2.07;;;14.60;99.90;;;;;;4993895;28;20499;-82
2023/09/08 04:58:21;;;;;;;2.13;2.03;;;14.60;99.90;;;;;;4993474;28;20749;-79
2023/09/08 05:00:48;;;;;;;2.77;2.67;;;14.80;99.90;;;;;;4990681;28;20450;-79
2023/09/08 05:03:15;;;;;;;2.37;2.27;;;14.90;99.90;;;;;;4988065;28;20678;-81
2023/09/08 05:05:42;;;;;;;2.20;2.10;;;14.90;99.90;;;;;;4995015;28;20450;-80
2023/09/08 05:08:11;;;;;;;13.90;4.57;;;15.00;99.90;;;;;;4978270;28;20435;-80
2023/09/08 05:10:38;;;;;;;1.37;1.37;;;15.10;99.90;;;;;;5008530;28;20474;-81
2023/09/08 05:13:05;;;;;;;1.10;1.10;;;15.10;99.90;;;;;;5010708;28;20496;-83
2023/09/08 05:15:48;;;;;;;2.70;2.57;;;15.20;99.90;;;;;;4984557;28;20448;-80
2023/09/08 05:18:15;;;;;;;1.43;1.43;;;15.40;99.90;;;;;;4994752;28;20452;-82
2023/09/08 05:20:43;;;;;;;2.33;2.27;;;15.50;99.90;;;;;;4990813;28;20474;-78
2023/09/08 05:23:11;;;;;;;1.67;1.60;;;15.60;99.90;;;;;;4978936;28;20446;-81
2023/09/08 05:25:42;;;;;;;1.87;1.77;;;15.60;99.90;;;;;;4993639;28;20474;-82
2023/09/08 05:28:09;;;;;;;2.10;2.00;;;15.70;99.90;;;;;;4999890;28;20483;-87
2023/09/08 05:30:36;;;;;;;1.87;1.67;;;15.90;99.90;;;;;;4992436;28;20568;-81
2023/09/08 05:33:03;;;;;;;1.50;1.40;;;15.90;99.90;;;;;;4989991;28;20781;-82
2023/09/08 05:35:30;;;;;;;1.57;1.57;;;16.00;99.90;;;;;;4988187;28;20480;-81
2023/09/08 05:37:59;;;;;;;1.83;1.73;;;16.10;99.90;;;;;;4979850;28;20446;-81
2023/09/08 05:40:26;;;;;;;2.37;2.27;;;16.20;99.90;;;;;;4985148;28;20511;-80
2023/09/08 05:42:54;;;;;;;3.37;3.20;;;16.30;99.90;;;;;;4990989;28;20521;-81
2023/09/08 05:45:22;;;;;;;5.17;4.83;;;16.50;99.90;;;;;;4985261;28;20504;-79
2023/09/08 05:47:50;;;;;;;1.20;1.20;;;16.60;99.90;;;;;;4999455;28;20474;-80
2023/09/08 05:50:17;;;;;;;1.83;1.73;;;16.70;99.90;;;;;;4998782;28;20729;-84
2023/09/08 05:52:44;;;;;;;1.37;1.37;;;16.80;99.90;;;;;;5000349;28;20478;-81
2023/09/08 05:55:11;;;;;;;0.70;0.70;;;16.90;99.90;;;;;;4995244;28;20765;-81
2023/09/08 05:57:45;;;;;;;1.13;1.13;;;17.10;99.90;;;;;;5000237;28;20438;-82
2023/09/08 06:00:13;;;;;;;2.03;1.93;;;17.00;99.90;;;;;;5003982;28;20464;-79
2023/09/08 06:02:40;;;;;;;1.10;1.10;;;17.10;99.90;;;;;;4998793;28;20452;-80
2023/09/08 06:05:07;;;;;;;1.53;1.43;;;17.20;99.90;;;;;;4996715;28;20518;-79
2023/09/08 06:07:37;;;;;;;2.27;2.10;;;17.30;99.90;;;;;;5006024;28;20637;-84
2023/09/08 06:10:30;;;;;;;2.77;2.57;;;17.50;99.90;;;;;;5005785;28;20479;-86
2023/09/08 06:12:57;;;;;;;2.40;2.30;;;17.80;99.90;;;;;;5004912;28;20435;-86
2023/09/08 06:15:24;;;;;;;2.33;2.23;;;17.90;99.90;;;;;;4974962;28;20428;-81
2023/09/08 06:17:51;;;;;;;4.17;2.57;;;17.80;99.90;;;;;;5002225;28;20687;-86
2023/09/08 06:20:19;;;;;;;1.00;1.00;;;18.10;99.90;;;;;;4996063;28;20621;-81
2023/09/08 06:22:50;;;;;;;2.03;1.93;;;18.10;99.90;;;;;;4979126;28;20503;-84
2023/09/08 06:25:23;;;;;;;2.50;2.40;;;18.30;99.90;;;;;;4984983;28;20472;-86
2023/09/08 06:27:53;;;;;;;1.40;1.40;;;18.40;99.90;;;;;;5000580;28;20474;-87
2023/09/08 06:30:27;;;;;;;1.33;1.33;;;18.60;99.90;;;;;;5001756;28;20531;-81
2023/09/08 06:32:56;;;;;;;2.60;2.50;;;18.80;99.90;;;;;;4997309;28;20557;-82
2023/09/08 06:35:39;;;;;;;1.67;1.57;;;19.10;99.90;;;;;;5002531;28;20814;-83
2023/09/08 06:38:14;;;;;;;2.50;2.40;;;19.20;99.90;;;;;;4991603;28;20470;-85
2023/09/08 06:40:43;;;;;;;4.03;3.80;;;19.50;99.90;;;;;;4971050;28;20496;-80
2023/09/08 06:43:12;;;;;;;3.30;3.10;;;19.80;99.90;;;;;;4974303;28;20527;-81
2023/09/08 06:45:39;;;;;;;1.50;1.40;;;19.80;99.90;;;;;;4992952;28;20865;-87
2023/09/08 06:48:16;;;;;;;2.47;2.23;;;19.90;99.90;;;;;;4974980;28;20467;-85
2023/09/08 06:50:48;;;;;;;2.13;2.03;;;20.40;99.90;;;;;;4974786;28;20486;-87
2023/09/08 06:53:18;;;;;;;2.67;2.57;;;20.70;99.90;;;;;;4969409;28;20437;-88
2023/09/08 06:55:47;;;;;;;2.63;2.43;;;20.90;99.90;;;;;;5006339;28;20522;-82
2023/09/08 06:58:14;;;;;;;2.13;2.03;;;20.80;99.90;;;;;;5005492;28;20431;-81
2023/09/08 07:00:42;;;;;;;2.40;2.30;;;21.00;99.90;;;;;;5011104;28;20477;-87
2023/09/08 07:03:09;;;;;;;1.93;1.83;;;21.50;99.90;;;;;;4987950;28;20424;-83
2023/09/08 07:05:39;;;;;;;4.80;4.43;;;22.30;99.90;;;;;;4974219;28;20903;-84
2023/09/08 07:08:12;;;;;;;1.70;1.60;;;22.90;99.90;;;;;;4997158;28;20426;-87
2023/09/08 07:10:43;;;;;;;2.20;2.10;;;23.40;99.90;;;;;;5005773;28;20474;-89
2023/09/08 07:13:16;;;;;;;1.57;1.50;;;23.70;99.90;;;;;;5003043;28;20410;-84
2023/09/08 07:15:52;;;;;;;2.07;1.97;;;24.50;99.90;;;;;;4986459;28;20449;-88
2023/09/08 07:18:19;;;;;;;1.73;1.63;;;24.90;99.90;;;;;;4995989;28;20449;-89
2023/09/08 07:20:52;;;;;;;2.73;2.53;;;25.30;99.90;;;;;;5008175;28;20436;-85
2023/09/08 07:23:30;;;;;;;3.80;3.50;;;25.30;99.90;;;;;;4991075;28;20448;-88
2023/09/08 07:25:58;;;;;;;2.20;2.10;;;25.80;99.90;;;;;;4972462;28;20459;-85
2023/09/08 07:28:25;;;;;;;2.70;2.60;;;26.80;98.90;;;;;;4988483;28;20446;-84
2023/09/08 07:31:00;;;;;;;2.70;2.60;;;26.00;98.00;;;;;;5012810;28;20513;-85
2023/09/08 07:33:27;;;;;;;2.23;2.13;;;26.60;98.30;;;;;;5015779;28;20435;-84
2023/09/08 07:36:06;;;;;;;2.03;1.93;;;26.80;97.00;;;;;;4997013;28;20500;-84
2023/09/08 07:38:37;;;;;;;2.40;2.30;;;27.50;95.10;;;;;;5013751;28;20507;-81
2023/09/08 07:41:04;;;;;;;4.33;4.03;;;27.10;94.10;;;;;;4999859;28;20852;-83
2023/09/08 07:43:31;;;;;;;2.03;1.93;;;27.10;95.00;;;;;;5013686;28;20443;-87
2023/09/08 07:45:58;;;;;;;1.77;1.70;;;27.10;94.30;;;;;;5002150;28;20524;-81
2023/09/08 07:48:26;;;;;;;2.63;2.53;;;27.10;94.30;;;;;;4996889;28;20490;-81
2023/09/08 07:50:55;;;;;;;4.33;4.13;;;27.50;93.10;;;;;;4991147;28;21071;-83
2023/09/08 07:53:22;;;;;;;2.83;2.70;;;27.50;94.20;;;;;;4997628;28;20448;-82
2023/09/08 07:55:50;;;;;;;4.50;3.50;;;27.90;92.20;;;;;;4982033;28;20467;-80
2023/09/08 07:58:17;;;;;;;2.70;2.50;;;27.50;92.50;;;;;;4999817;28;20464;-81
2023/09/08 08:00:45;;;;;;;2.90;2.80;;;27.20;93.60;;;;;;5004307;28;20472;-85
2023/09/08 08:03:14;;;;;;;3.97;3.77;;;26.70;94.50;;;;;;5059452;23;20496;-85
2023/09/08 08:05:56;;;;;;;3.80;2.60;;;26.60;94.60;;;;;;5007511;28;20419;-86
2023/09/08 08:08:25;;;;;;;1.93;1.83;;;27.50;92.90;;;;;;5006929;28;20995;-85
2023/09/08 08:10:53;;;;;;;1.83;1.73;;;27.90;92.70;;;;;;4999892;28;20497;-83
2023/09/08 08:13:26;;;;;;;3.40;3.20;;;27.80;92.20;;;;;;5305686;23;21651;-88
2023/09/08 08:15:56;;;;;;;1.80;1.70;;;28.60;91.10;;;;;;5028726;28;20519;-84
2023/09/08 08:23:45;;;;;;;2.63;2.47;;;28.10;91.50;;;;;;5744801;23;20495;-84
2023/09/08 08:28:48;;;;;;;3.00;2.80;;;28.50;90.20;;;;;;5043408;23;20617;-84
2023/09/08 08:33:57;;;;;;;2.10;2.00;;;27.60;91.80;;;;;;5537849;23;20498;-87
2023/09/08 08:41:52;;;;;;;3.47;3.27;;;28.40;90.20;;;;;;5409093;23;20435;-86
2023/09/08 08:49:33;;;;;;;2.57;2.47;;;29.20;87.00;;;;;;5236465;23;20530;-86
2023/09/08 08:52:07;;;;;;;2.00;1.90;;;29.80;85.20;;;;;;5146764;23;20496;-86
2023/09/08 08:54:37;;;;;;;1.30;1.30;;;29.60;84.90;;;;;;4987885;28;20449;-87
2023/09/08 08:57:08;;;;;;;2.30;2.20;;;29.00;86.70;;;;;;4992571;28;20417;-87
2023/09/08 09:02:16;;;;;;;3.13;2.93;;;29.40;86.00;;;;;;5655604;23;20502;-84
2023/09/08 09:04:46;;;;;;;2.13;2.03;;;28.50;87.20;;;;;;5144197;23;20596;-86
2023/09/08 09:07:20;;;;;;;2.37;2.27;;;28.40;88.00;;;;;;5131555;23;20490;-85
2023/09/08 09:09:51;;;;;;;2.10;2.00;;;28.00;87.90;;;;;;5021788;28;20431;-82
2023/09/08 09:12:22;;;;;;;2.50;2.40;;;27.50;90.60;;;;;;5022497;28;20465;-85
2023/09/08 09:14:54;;;;;;;1.57;1.50;;;27.70;90.40;;;;;;5451888;23;20545;-86
2023/09/08 09:20:17;;;;;;;3.20;3.00;;;28.30;88.30;;;;;;5959368;23;20571;-83
2023/09/08 09:22:45;;;;;;;2.20;2.10;;;28.40;88.20;;;;;;4989695;28;20437;-87
2023/09/08 09:28:02;;;;;;;2.63;2.47;;;27.90;90.00;;;;;;5648257;23;20532;-83
2023/09/08 09:33:11;;;;;;;2.17;2.07;;;28.20;90.40;;;;;;5349155;23;20561;-85
2023/09/08 09:35:51;;;;;;;1.47;1.40;;;27.80;90.10;;;;;;5088493;23;20515;-87
2023/09/08 09:38:24;;;;;;;2.50;2.40;;;27.60;90.80;;;;;;5002219;28;20667;-87
2023/09/08 09:41:11;;;;;;;2.30;2.20;;;27.00;90.70;;;;;;5037292;23;20498;-86
2023/09/08 09:43:38;;;;;;;1.70;1.60;;;26.70;91.70;;;;;;5084867;23;20480;-87
2023/09/08 09:46:08;;;;;;;1.60;1.50;;;26.50;92.40;;;;;;5013920;28;20458;-88
2023/09/08 09:51:22;;;;;;;2.17;2.07;;;26.60;93.00;;;;;;5030353;23;20469;-80
2023/09/08 09:53:50;;;;;;;2.20;2.10;;;26.40;92.50;;;;;;5466912;23;20551;-87
2023/09/08 09:59:00;;;;;;;2.03;1.93;;;26.20;93.80;;;;;;5464206;23;20470;-85
2023/09/08 10:07:09;;;;;;;2.93;2.17;;;26.60;93.10;;;;;;5144418;23;20469;-87
2023/09/08 10:15:02;;;;;;;1.60;1.53;;;27.20;93.10;;;;;;5068837;23;20491;-84
2023/09/08 10:17:30;;;;;;;2.00;1.87;;;27.00;93.00;;;;;;5019918;28;20898;-82
2023/09/08 10:20:01;;;;;;;2.40;2.30;;;26.80;93.30;;;;;;5412193;23;20473;-85
2023/09/08 10:22:32;;;;;;;1.87;1.77;;;26.30;92.40;;;;;;5022800;28;20430;-82
2023/09/08 10:25:05;;;;;;;3.43;3.23;;;26.30;93.40;;;;;;5103933;23;20519;-85
2023/09/08 10:27:37;;;;;;;1.10;1.10;;;26.20;92.50;;;;;;5188195;22;20472;-81
2023/09/08 10:30:09;;;;;;;1.43;1.40;;;25.90;92.20;;;;;;5226382;22;20467;-87
2023/09/08 10:32:38;;;;;;;1.83;1.73;;;25.90;92.80;;;;;;5419056;22;20471;-87
2023/09/08 10:35:07;;;;;;;2.40;2.20;;;26.00;93.40;;;;;;5023003;28;20515;-86
2023/09/08 10:37:34;;;;;;;2.00;1.90;;;26.20;93.10;;;;;;5332696;23;20506;-85
2023/09/08 10:42:44;;;;;;;1.40;1.30;;;26.30;92.80;;;;;;5460400;22;20420;-83
2023/09/08 10:47:53;;;;;;;1.90;1.80;;;26.50;91.50;;;;;;5240846;23;20486;-88
2023/09/08 10:50:38;;;;;;;3.23;3.10;;;26.60;91.80;;;;;;4986839;28;20430;-86
2023/09/08 10:58:32;;;;;;;2.00;1.83;;;26.50;91.50;;;;;;5498537;22;20501;-81
2023/09/08 11:01:01;;;;;;;2.03;1.93;;;26.30;91.50;;;;;;5717487;23;20575;-85
2023/09/08 11:06:11;;;;;;;1.60;1.50;;;26.50;91.10;;;;;;5219243;23;20459;-84
2023/09/08 11:08:41;;;;;;;1.27;1.20;;;26.50;90.50;;;;;;5215320;22;20528;-85
2023/09/08 11:11:14;;;;;;;1.80;1.70;;;26.70;89.10;;;;;;5210415;23;20543;-83
2023/09/08 11:13:45;;;;;;;1.67;1.57;;;26.70;87.60;;;;;;5364418;23;20480;-79
2023/09/08 11:18:56;;;;;;;1.73;1.63;;;26.60;89.50;;;;;;5060254;23;20501;-84
2023/09/08 11:29:30;;;;;;;1.73;1.63;;;27.00;88.20;;;;;;5026409;22;20574;-86
2023/09/08 11:31:58;;;;;;;2.13;1.77;;;26.80;90.00;;;;;;5084431;22;20500;-83
2023/09/08 11:37:16;;;;;;;2.80;2.53;;;26.80;90.00;;;;;;5375417;22;20465;-83
2023/09/08 11:39:47;;;;;;;2.80;2.60;;;27.10;89.70;;;;;;5199052;22;20475;-84
2023/09/08 11:44:57;;;;;;;2.70;1.23;;;27.20;87.80;;;;;;5003496;28;20454;-82
2023/09/08 11:47:26;;;;;;;1.03;1.03;;;27.00;86.20;;;;;;5165708;22;20423;-84
2023/09/08 11:49:54;;;;;;;1.20;1.20;;;27.00;89.20;;;;;;5057055;23;20487;-84
2023/09/08 11:52:24;;;;;;;2.30;2.20;;;27.10;85.30;;;;;;5383716;23;20534;-88
2023/09/08 11:54:52;;;;;;;1.87;1.77;;;27.10;85.90;;;;;;5367647;22;20483;-81
2023/09/08 11:57:33;;;;;;;2.37;2.27;;;27.10;85.30;;;;;;5224084;23;20551;-90
2023/09/08 12:00:05;;;;;;;1.33;1.33;;;27.00;85.50;;;;;;5023153;28;20385;-80
2023/09/08 12:02:36;;;;;;;1.40;1.40;;;27.00;84.40;;;;;;5597649;23;20505;-86
2023/09/08 12:05:04;;;;;;;1.30;1.20;;;27.10;84.90;;;;;;5202089;23;20424;-83
2023/09/08 12:07:31;;;;;;;1.53;1.43;;;27.30;84.00;;;;;;5157902;23;20472;-83
2023/09/08 12:09:58;;;;;;;1.33;1.30;;;27.20;84.90;;;;;;5056228;28;20420;-85
2023/09/08 12:12:27;;;;;;;1.40;1.33;;;27.40;84.70;;;;;;5126874;22;20475;-81
2023/09/08 12:14:53;;;;;;;1.50;1.40;;;27.40;85.00;;;;;;5012489;28;20473;-85
2023/09/08 12:17:26;;;;;;;1.70;1.60;;;27.40;84.60;;;;;;5577670;23;20467;-85
2023/09/08 12:19:53;;;;;;;2.63;2.43;;;27.50;84.70;;;;;;5003118;28;20525;-83
2023/09/08 12:25:08;;;;;;;2.13;2.03;;;27.50;82.80;;;;;;5961050;22;20431;-88
2023/09/08 12:43:42;;;;;;;2.40;2.20;;;27.50;79.20;;;;;;5564661;23;20495;-89
2023/09/08 12:46:09;;;;;;;2.07;1.97;;;27.60;79.90;;;;;;4993316;28;20443;-89
2023/09/08 12:56:42;;;;;;;1.53;1.40;;;27.50;79.40;;;;;;5614826;22;20474;-89
2023/09/08 12:59:11;;;;;;;2.23;2.13;;;27.40;80.70;;;;;;5285158;22;20891;-88
2023/09/08 13:01:38;;;;;;;1.20;1.20;;;27.60;81.70;;;;;;5069879;23;20463;-89
2023/09/08 13:09:20;;;;;;;1.57;1.50;;;27.50;78.50;;;;;;5447732;22;21796;-89
2023/09/08 13:11:48;;;;;;;2.63;2.47;;;27.50;79.90;;;;;;5004634;28;20489;-84
2023/09/08 13:16:58;;;;;;;1.60;1.60;;;27.10;81.00;;;;;;5004390;28;20507;-84
2023/09/08 13:19:32;;;;;;;1.20;1.20;;;27.30;80.80;;;;;;5006465;28;20482;-88
2023/09/08 13:22:04;;;;;;;1.30;1.30;;;27.10;81.50;;;;;;5006938;28;20422;-90
2023/09/08 13:24:33;;;;;;;1.67;1.57;;;27.10;79.50;;;;;;5006325;28;20410;-86
2023/09/08 13:27:00;;;;;;;1.40;1.40;;;27.10;81.80;;;;;;5005372;28;20430;-88
2023/09/08 13:29:27;;;;;;;2.13;2.03;;;27.20;79.40;;;;;;5436559;23;20428;-88
2023/09/08 13:31:59;;;;;;;1.40;1.40;;;27.20;79.80;;;;;;4984968;28;20439;-89
2023/09/08 13:34:28;;;;;;;1.27;1.27;;;27.20;79.90;;;;;;5055036;23;20544;-86
2023/09/08 13:39:30;;;;;;;1.17;1.17;;;27.10;80.30;;;;;;5454473;23;20538;-89
2023/09/08 13:42:02;;;;;;;1.43;1.33;;;27.10;79.30;;;;;;5582822;23;20502;-87
2023/09/08 13:44:32;;;;;;;1.10;1.10;;;27.20;79.00;;;;;;5009181;28;20426;-88
2023/09/08 13:47:01;;;;;;;1.90;1.80;;;27.20;79.70;;;;;;5024166;28;20610;-88
2023/09/08 13:49:28;;;;;;;1.20;1.20;;;27.40;79.40;;;;;;5106171;23;20499;-89
2023/09/08 13:51:58;;;;;;;1.30;1.30;;;27.20;78.10;;;;;;4986582;28;20482;-88
2023/09/08 13:54:28;;;;;;;1.10;1.10;;;27.30;78.60;;;;;;4993680;28;20461;-87
2023/09/08 13:57:04;;;;;;;1.10;1.10;;;27.20;78.60;;;;;;5076940;23;20441;-84
2023/09/08 13:59:34;;;;;;;1.00;1.00;;;27.10;79.60;;;;;;5350453;23;20447;-87
2023/09/08 14:02:03;;;;;;;1.53;1.43;;;26.90;78.50;;;;;;5262584;23;20481;-90
2023/09/08 14:04:33;;;;;;;1.57;1.50;;;27.00;78.90;;;;;;5188200;23;20561;-84
2023/09/08 14:07:06;;;;;;;1.07;1.07;;;27.00;77.60;;;;;;5283394;23;20520;-85
2023/09/08 14:09:43;;;;;;;1.10;1.10;;;27.10;78.70;;;;;;5238786;23;20480;-85
2023/09/08 14:12:27;;;;;;;1.10;1.10;;;27.20;77.50;;;;;;5290988;23;20485;-86
2023/09/08 14:15:04;;;;;;;2.13;2.03;;;27.20;79.20;;;;;;5447613;23;20461;-84
2023/09/08 14:17:31;;;;;;;1.43;1.33;;;27.20;78.40;;;;;;5004087;28;20449;-90
2023/09/08 14:19:59;;;;;;;1.60;1.50;;;27.20;78.00;;;;;;5138936;23;20564;-89
2023/09/08 14:22:26;;;;;;;1.63;1.53;;;27.20;77.80;;;;;;5490225;22;20486;-87
2023/09/08 14:27:28;;;;;;;1.87;1.77;;;27.20;77.10;;;;;;5129370;23;20504;-84
2023/09/08 14:29:56;;;;;;;1.00;1.00;;;27.20;77.50;;;;;;5011098;28;20409;-88
2023/09/08 14:32:23;;;;;;;1.30;1.30;;;27.10;75.90;;;;;;5002087;28;20537;-89
2023/09/08 14:37:27;;;;;;;1.30;1.30;;;27.00;77.70;;;;;;5358608;23;20468;-89
2023/09/08 14:39:54;;;;;;;1.60;1.50;;;27.00;76.40;;;;;;5110436;23;20656;-84
2023/09/08 14:42:21;;;;;;;0.90;0.90;;;27.00;76.50;;;;;;5202541;23;20429;-89
2023/09/08 14:44:51;;;;;;;1.80;1.70;;;26.80;76.00;;;;;;5083522;22;20498;-85
2023/09/08 14:47:18;;;;;;;1.67;1.57;;;26.90;76.40;;;;;;4999403;28;20447;-84
2023/09/08 14:49:45;;;;;;;1.30;1.30;;;26.80;76.00;;;;;;5009726;28;20779;-88
2023/09/08 14:52:12;;;;;;;1.57;1.47;;;26.70;76.80;;;;;;5000400;28;20539;-89
2023/09/08 14:54:44;;;;;;;2.00;1.90;;;26.70;76.50;;;;;;5003740;28;20448;-87
2023/09/08 14:57:11;;;;;;;1.30;1.30;;;26.70;76.50;;;;;;4996233;28;20451;-87
2023/09/08 14:59:40;;;;;;;1.07;1.07;;;26.70;76.20;;;;;;5001244;28;20477;-84
2023/09/08 15:04:56;;;;;;;1.43;1.43;;;26.70;75.20;;;;;;4943690;28;20426;-90